createdAt,value
2023-04-23T00:01:40.497Z,97105.34
2023-04-23T00:04:08.744Z,97110.56
2023-04-23T00:06:35.590Z,97095.06
2023-04-23T00:09:03.899Z,97101.72
2023-04-23T00:11:30.557Z,97102.31
2023-04-23T00:13:57.125Z,97097.66
2023-04-23T00:16:24.608Z,97095.31
2023-04-23T00:18:51.282Z,97102.69
2023-04-23T00:21:17.912Z,97101.97
2023-04-23T00:23:44.338Z,97101.69
2023-04-23T00:26:10.868Z,97099.66
2023-04-23T00:28:37.327Z,97090.72
2023-04-23T00:31:03.832Z,97099.59
2023-04-23T00:33:30.595Z,97089.88
2023-04-23T00:35:57.048Z,97091.13
2023-04-23T00:38:23.528Z,97093.31
2023-04-23T00:40:50.093Z,97091.81
2023-04-23T00:43:17.626Z,97086.06
2023-04-23T00:45:44.401Z,97088.75
2023-04-23T00:48:11.824Z,97093.16
2023-04-23T00:50:38.339Z,97085.28
2023-04-23T00:53:04.801Z,97096.03
2023-04-23T00:55:31.412Z,97098.09
2023-04-23T00:57:57.889Z,97086.97
2023-04-23T01:00:24.382Z,97091.09
2023-04-23T01:02:53.027Z,97091.94
2023-04-23T01:05:19.865Z,97090.59
2023-04-23T01:07:47.085Z,97093.50
2023-04-23T01:10:13.990Z,97095.19
2023-04-23T01:12:41.721Z,97095.94
2023-04-23T01:15:08.861Z,97090.59
2023-04-23T01:17:35.510Z,97085.94
2023-04-23T01:20:02.053Z,97088.31
2023-04-23T01:22:28.695Z,97087.91
2023-04-23T01:24:55.280Z,97089.94
2023-04-23T01:27:22.312Z,97093.16
2023-04-23T01:29:49.320Z,97085.72
2023-04-23T01:32:17.832Z,97088.56
2023-04-23T01:34:46.392Z,97088.19
2023-04-23T01:37:13.845Z,97087.53
2023-04-23T01:39:40.401Z,97079.50
2023-04-23T01:42:07.313Z,97076.78
2023-04-23T01:44:33.990Z,97077.72
2023-04-23T01:47:00.489Z,97083.09
2023-04-23T01:49:27.277Z,97073.19
2023-04-23T01:51:53.761Z,97077.22
2023-04-23T01:54:20.317Z,97077.28
2023-04-23T01:56:49.872Z,97079.16
2023-04-23T01:59:16.380Z,97079.53
2023-04-23T02:01:46.863Z,97082.28
2023-04-23T02:04:14.526Z,97077.81
2023-04-23T02:06:42.176Z,97078.34
2023-04-23T02:09:08.672Z,97080.47
2023-04-23T02:11:35.211Z,97077.28
2023-04-23T02:14:02.246Z,97080.22
2023-04-23T02:16:29.460Z,97090.53
2023-04-23T02:18:55.987Z,97082.94
2023-04-23T02:21:24.330Z,97082.22
2023-04-23T02:23:51.420Z,97080.19
2023-04-23T02:26:18.857Z,97085.78
2023-04-23T02:28:48.529Z,97086.56
2023-04-23T02:31:16.604Z,97087.03
2023-04-23T02:33:43.497Z,97078.72
2023-04-23T02:36:11.708Z,97078.41
2023-04-23T02:38:41.445Z,97083.09
2023-04-23T02:41:08.307Z,97085.56
2023-04-23T02:43:34.825Z,97082.88
2023-04-23T02:46:07.939Z,97084.50
2023-04-23T02:48:38.585Z,97080.22
2023-04-23T02:51:06.455Z,97081.03
2023-04-23T02:53:33.280Z,97082.03
2023-04-23T02:56:00.146Z,97087.31
2023-04-23T02:58:26.911Z,97090.38
2023-04-23T03:00:56.235Z,97084.88
2023-04-23T03:03:26.569Z,97085.56
2023-04-23T03:05:53.302Z,97083.31
2023-04-23T03:08:19.834Z,97078.28
2023-04-23T03:10:46.387Z,97078.78
2023-04-23T03:13:13.084Z,97074.22
2023-04-23T03:15:40.737Z,97081.81
2023-04-23T03:18:08.468Z,97078.75
2023-04-23T03:20:36.405Z,97074.88
2023-04-23T03:23:06.240Z,97069.53
2023-04-23T03:25:33.305Z,97072.06
2023-04-23T03:28:00.431Z,97068.31
2023-04-23T03:30:28.760Z,97074.88
2023-04-23T03:32:56.777Z,97066.31
2023-04-23T03:35:23.941Z,97073.69
2023-04-23T03:37:51.792Z,97072.97
2023-04-23T03:40:20.088Z,97068.31
2023-04-23T03:42:49.538Z,97073.78
2023-04-23T03:45:20.234Z,97074.03
2023-04-23T03:47:46.783Z,97072.31
2023-04-23T03:50:13.771Z,97074.38
2023-04-23T03:52:42.861Z,97057.59
2023-04-23T03:55:15.684Z,97062.09
2023-04-23T03:57:45.150Z,97061.69
2023-04-23T04:00:23.702Z,97058.16
2023-04-23T04:02:50.334Z,97057.97
2023-04-23T04:05:17.055Z,97059.38
2023-04-23T04:07:45.257Z,97055.38
2023-04-23T04:10:11.802Z,97060.75
2023-04-23T04:12:38.285Z,97057.47
2023-04-23T04:15:08.756Z,97058.59
2023-04-23T04:17:35.285Z,97065.97
2023-04-23T04:20:01.743Z,97071.47
2023-04-23T04:22:29.074Z,97074.53
2023-04-23T04:24:56.187Z,97070.47
2023-04-23T04:27:22.724Z,97063.41
2023-04-23T04:29:49.503Z,97074.75
2023-04-23T04:32:16.212Z,97071.69
2023-04-23T04:34:43.081Z,97077.06
2023-04-23T04:37:11.520Z,97068.44
2023-04-23T04:39:38.116Z,97066.91
2023-04-23T04:42:06.646Z,97072.50
2023-04-23T04:44:33.100Z,97069.97
2023-04-23T04:46:59.675Z,97071.75
2023-04-23T04:49:26.329Z,97074.31
2023-04-23T04:51:54.243Z,97068.16
2023-04-23T04:54:21.816Z,97071.97
2023-04-23T04:56:48.310Z,97075.72
2023-04-23T04:59:14.852Z,97074.47
2023-04-23T05:01:41.502Z,97070.84
2023-04-23T05:04:08.338Z,97078.97
2023-04-23T05:06:35.012Z,97084.09
2023-04-23T05:09:01.529Z,97079.38
2023-04-23T05:11:28.076Z,97078.66
2023-04-23T05:13:54.592Z,97084.47
2023-04-23T05:16:21.301Z,97079.31
2023-04-23T05:18:47.756Z,97079.00
2023-04-23T05:21:14.939Z,97088.75
2023-04-23T05:23:41.361Z,97078.66
2023-04-23T05:26:07.867Z,97074.75
2023-04-23T05:28:34.335Z,97076.97
2023-04-23T05:31:00.845Z,97072.94
2023-04-23T05:33:33.550Z,97067.38
2023-04-23T05:36:02.942Z,97068.88
2023-04-23T05:38:29.450Z,97061.44
2023-04-23T05:40:56.005Z,97063.44
2023-04-23T05:43:22.486Z,97068.44
2023-04-23T05:45:49.031Z,97062.16
2023-04-23T05:48:15.514Z,97066.53
2023-04-23T05:50:41.976Z,97067.06
2023-04-23T05:53:08.480Z,97065.06
2023-04-23T05:55:34.944Z,97067.00
2023-04-23T05:58:02.413Z,97070.72
2023-04-23T06:00:29.052Z,97081.44
2023-04-23T06:02:55.665Z,97083.94
2023-04-23T06:05:22.363Z,97078.22
2023-04-23T06:07:49.019Z,97074.06
2023-04-23T06:10:15.516Z,97082.97
2023-04-23T06:12:42.333Z,97071.41
2023-04-23T06:15:09.514Z,97073.00
2023-04-23T06:17:36.407Z,97072.16
2023-04-23T06:20:05.005Z,97067.22
2023-04-23T06:22:32.510Z,97083.38
2023-04-23T06:24:59.041Z,97077.63
2023-04-23T06:27:26.976Z,97083.41
2023-04-23T06:29:57.672Z,97076.63
2023-04-23T06:32:24.206Z,97079.59
2023-04-23T06:35:00.802Z,97080.88
2023-04-23T06:37:29.694Z,97086.03
2023-04-23T06:39:56.556Z,97087.25
2023-04-23T06:42:23.164Z,97082.91
2023-04-23T06:45:06.249Z,97077.03
2023-04-23T06:47:33.038Z,97079.22
2023-04-23T06:50:02.272Z,97082.81
2023-04-23T06:52:28.792Z,97078.31
2023-04-23T06:54:55.271Z,97078.56
2023-04-23T06:57:21.923Z,97077.88
2023-04-23T06:59:48.441Z,97081.75
2023-04-23T07:02:16.031Z,97080.03
2023-04-23T07:04:42.801Z,97070.44
2023-04-23T07:07:09.510Z,97070.44
2023-04-23T07:09:36.016Z,97065.75
2023-04-23T07:12:03.297Z,97062.88
2023-04-23T07:14:29.775Z,97056.91
2023-04-23T07:16:56.273Z,97058.72
2023-04-23T07:19:22.704Z,97064.94
2023-04-23T07:21:49.196Z,97062.81
2023-04-23T07:24:16.664Z,97060.22
2023-04-23T07:26:43.135Z,97055.56
2023-04-23T07:29:14.075Z,97051.75
2023-04-23T07:31:42.007Z,97057.22
2023-04-23T07:34:09.788Z,97053.09
2023-04-23T07:36:36.593Z,97055.03
2023-04-23T07:39:03.097Z,97050.00
2023-04-23T07:41:29.766Z,97054.44
2023-04-23T07:43:56.553Z,97053.69
2023-04-23T07:46:23.049Z,97052.41
2023-04-23T07:48:49.624Z,97047.41
2023-04-23T07:51:16.343Z,97052.78
2023-04-23T07:53:42.853Z,97044.88
2023-04-23T07:56:09.316Z,97044.69
2023-04-23T07:58:35.856Z,97038.94
2023-04-23T08:01:02.515Z,97040.31
2023-04-23T08:03:29.351Z,97041.13
2023-04-23T08:05:56.859Z,97041.59
2023-04-23T08:08:23.393Z,97044.66
2023-04-23T08:10:49.878Z,97028.88
2023-04-23T08:13:16.355Z,97030.44
2023-04-23T08:15:43.055Z,97034.09
2023-04-23T08:18:09.594Z,97031.06
2023-04-23T08:20:36.097Z,97036.00
2023-04-23T08:23:03.711Z,97035.56
2023-04-23T08:25:30.282Z,97031.63
2023-04-23T08:27:56.764Z,97035.16
2023-04-23T08:30:23.354Z,97036.19
2023-04-23T08:32:51.103Z,97029.03
2023-04-23T08:35:17.864Z,97033.97
2023-04-23T08:37:44.378Z,97034.06
2023-04-23T08:40:11.135Z,97032.97
2023-04-23T08:42:41.621Z,97028.09
2023-04-23T08:45:08.373Z,97021.28
2023-04-23T08:47:35.651Z,97017.66
2023-04-23T08:50:04.027Z,97025.81
2023-04-23T08:52:34.918Z,97022.25
2023-04-23T08:55:01.930Z,97023.19
2023-04-23T08:57:28.421Z,97024.63
2023-04-23T08:59:55.457Z,97019.63
2023-04-23T09:02:22.886Z,97028.16
2023-04-23T09:04:51.428Z,97033.66
2023-04-23T09:07:19.094Z,97018.78
2023-04-23T09:09:45.621Z,97019.91
2023-04-23T09:12:12.052Z,97023.88
2023-04-23T09:14:38.475Z,97025.22
2023-04-23T09:17:05.081Z,97024.50
2023-04-23T09:19:31.649Z,97012.38
2023-04-23T09:21:58.945Z,97014.28
2023-04-23T09:24:26.160Z,97007.41
2023-04-23T09:26:52.820Z,97003.78
2023-04-23T09:29:21.616Z,97005.28
2023-04-23T09:31:51.787Z,97000.19
2023-04-23T09:34:19.234Z,97002.50
2023-04-23T09:36:46.414Z,97004.13
2023-04-23T09:39:16.923Z,96999.47
2023-04-23T09:41:43.765Z,96998.88
2023-04-23T09:44:10.306Z,96989.47
2023-04-23T09:46:37.533Z,96990.22
2023-04-23T09:49:07.739Z,96979.25
2023-04-23T09:51:41.186Z,96980.84
2023-04-23T09:54:11.864Z,96983.53
2023-04-23T09:56:38.381Z,96983.75
2023-04-23T09:59:35.948Z,96981.19
2023-04-23T10:02:12.118Z,96967.56
2023-04-23T10:04:39.822Z,96970.66
2023-04-23T10:07:18.743Z,96968.41
2023-04-23T10:09:46.785Z,96959.53
2023-04-23T10:12:28.976Z,96960.56
2023-04-23T10:15:00.273Z,96953.06
2023-04-23T10:17:26.924Z,96950.41
2023-04-23T10:19:55.271Z,96960.06
2023-04-23T10:22:21.845Z,96949.75
2023-04-23T10:24:52.028Z,96943.59
2023-04-23T10:29:49.148Z,96948.00
2023-04-23T10:32:15.942Z,96943.88
2023-04-23T10:34:42.511Z,96937.41
2023-04-23T10:37:09.363Z,96936.53
2023-04-23T10:39:36.240Z,96932.28
2023-04-23T10:42:03.853Z,96924.25
2023-04-23T10:44:56.531Z,96922.53
2023-04-23T10:47:22.517Z,96925.13
2023-04-23T10:49:49.022Z,96920.53
2023-04-23T10:52:20.003Z,96917.59
2023-04-23T10:54:49.041Z,96917.88
2023-04-23T10:57:15.502Z,96911.56
2023-04-23T10:59:51.935Z,96916.81
2023-04-23T11:02:18.435Z,96911.88
2023-04-23T11:04:46.587Z,96915.16
2023-04-23T11:07:13.654Z,96911.94
2023-04-23T11:09:40.328Z,96908.28
2023-04-23T11:12:08.294Z,96913.75
2023-04-23T11:14:38.585Z,96916.66
2023-04-23T11:17:06.725Z,96911.06
2023-04-23T11:19:37.026Z,96911.72
2023-04-23T11:22:03.505Z,96900.50
2023-04-23T11:24:30.908Z,96901.56
2023-04-23T11:26:57.814Z,96901.84
2023-04-23T11:29:25.009Z,96895.94
2023-04-23T11:32:01.863Z,96895.41
2023-04-23T11:34:30.101Z,96893.66
2023-04-23T11:36:58.395Z,96886.50
2023-04-23T11:39:25.580Z,96889.50
2023-04-23T11:41:52.455Z,96875.59
2023-04-23T11:44:20.788Z,96885.50
2023-04-23T11:46:48.516Z,96875.75
2023-04-23T11:49:15.716Z,96878.75
2023-04-23T11:51:45.807Z,96874.72
2023-04-23T11:54:13.585Z,96878.38
2023-04-23T11:56:40.692Z,96871.41
2023-04-23T11:59:07.314Z,96868.41
2023-04-23T12:01:43.659Z,96873.25
2023-04-23T12:04:20.310Z,96863.63
2023-04-23T12:06:47.608Z,96869.97
2023-04-23T12:09:15.135Z,96870.16
2023-04-23T12:11:42.447Z,96872.47
2023-04-23T12:14:10.293Z,96871.31
2023-04-23T12:16:41.038Z,96856.03
2023-04-23T12:19:13.488Z,96850.25
2023-04-23T12:21:55.645Z,96845.47
2023-04-23T12:24:26.489Z,96846.91
2023-04-23T12:26:54.551Z,96864.72
2023-04-23T12:29:24.823Z,96838.59
2023-04-23T12:31:54.759Z,96841.63
2023-04-23T12:34:21.595Z,96835.69
2023-04-23T12:36:49.282Z,96841.97
2023-04-23T12:39:32.212Z,96823.91
2023-04-23T12:42:04.796Z,96822.31
2023-04-23T12:44:32.142Z,96827.94
2023-04-23T12:46:59.882Z,96821.06
2023-04-23T12:49:29.886Z,96819.78
2023-04-23T12:52:02.951Z,96814.81
2023-04-23T12:54:38.972Z,96801.41
2023-04-23T12:57:06.476Z,96804.97
2023-04-23T12:59:33.192Z,96802.78
2023-04-23T13:02:03.708Z,96798.59
2023-04-23T13:04:31.296Z,96803.41
2023-04-23T13:06:57.775Z,96785.75
2023-04-23T13:09:26.779Z,96787.97
2023-04-23T13:11:54.018Z,96777.19
2023-04-23T13:14:21.278Z,96775.81
2023-04-23T13:16:47.829Z,96761.44
2023-04-23T13:19:14.365Z,96763.16
2023-04-23T13:21:40.817Z,96757.69
2023-04-23T13:24:07.312Z,96745.78
2023-04-23T13:26:34.108Z,96753.00
2023-04-23T13:29:01.099Z,96747.63
2023-04-23T13:31:28.228Z,96746.56
2023-04-23T13:33:55.225Z,96743.09
2023-04-23T13:36:22.281Z,96736.34
2023-04-23T13:38:48.826Z,96737.22
2023-04-23T13:41:15.251Z,96731.50
2023-04-23T13:43:41.772Z,96730.09
2023-04-23T13:46:08.626Z,96731.44
2023-04-23T13:48:35.093Z,96722.81
2023-04-23T13:51:01.739Z,96717.91
2023-04-23T13:53:28.487Z,96720.44
2023-04-23T13:55:56.141Z,96712.22
2023-04-23T13:58:23.441Z,96704.75
2023-04-23T14:00:50.216Z,96710.41
2023-04-23T14:03:17.023Z,96705.81
2023-04-23T14:05:43.637Z,96698.41
2023-04-23T14:08:10.147Z,96708.66
2023-04-23T14:10:36.750Z,96695.38
2023-04-23T14:13:04.504Z,96706.53
2023-04-23T14:15:31.092Z,96693.53
2023-04-23T14:17:59.827Z,96698.13
2023-04-23T14:20:26.454Z,96693.19
2023-04-23T14:22:57.102Z,96690.31
2023-04-23T14:25:24.879Z,96687.81
2023-04-23T14:27:51.596Z,96675.94
2023-04-23T14:30:21.380Z,96688.72
2023-04-23T14:32:50.026Z,96683.25
2023-04-23T14:35:17.404Z,96673.72
2023-04-23T14:37:45.419Z,96672.50
2023-04-23T14:40:21.509Z,96672.25
2023-04-23T14:42:48.916Z,96668.63
2023-04-23T14:45:16.287Z,96654.91
2023-04-23T14:47:47.782Z,96650.31
2023-04-23T14:50:15.402Z,96652.66
2023-04-23T14:52:43.808Z,96646.50
2023-04-23T14:55:11.152Z,96653.31
2023-04-23T14:57:37.730Z,96637.84
2023-04-23T15:00:05.015Z,96634.88
2023-04-23T15:02:31.540Z,96633.44
2023-04-23T15:04:58.095Z,96633.00
2023-04-23T15:07:24.592Z,96634.97
2023-04-23T15:09:51.228Z,96632.66
2023-04-23T15:12:36.336Z,96634.00
2023-04-23T15:15:06.473Z,96642.81
2023-04-23T15:17:33.194Z,96634.41
2023-04-23T15:20:00.662Z,96633.00
2023-04-23T15:22:27.278Z,96633.13
2023-04-23T15:24:53.697Z,96630.66
2023-04-23T15:27:21.982Z,96634.47
2023-04-23T15:29:49.297Z,96633.81
2023-04-23T15:32:16.550Z,96636.28
2023-04-23T15:34:42.969Z,96634.66
2023-04-23T15:37:09.680Z,96628.72
2023-04-23T15:39:36.165Z,96626.84
2023-04-23T15:42:03.300Z,96625.50
2023-04-23T15:44:29.758Z,96626.16
2023-04-23T15:46:56.183Z,96630.31
2023-04-23T15:49:22.639Z,96623.00
2023-04-23T15:51:49.119Z,96627.84
2023-04-23T15:54:15.585Z,96620.19
2023-04-23T15:56:42.003Z,96613.50
2023-04-23T15:59:08.449Z,96619.06
2023-04-23T16:01:36.003Z,96612.84
2023-04-23T16:06:32.101Z,96605.22
2023-04-23T16:08:58.602Z,96604.72
2023-04-23T16:11:27.700Z,96597.25
2023-04-23T16:13:54.248Z,96594.91
2023-04-23T16:16:20.819Z,96594.41
2023-04-23T16:18:47.414Z,96591.78
2023-04-23T16:21:13.896Z,96593.41
2023-04-23T16:23:40.491Z,96584.13
2023-04-23T16:26:08.723Z,96581.94
2023-04-23T16:28:35.449Z,96578.53
2023-04-23T16:31:01.973Z,96567.78
2023-04-23T16:33:30.296Z,96563.81
2023-04-23T16:35:59.868Z,96553.13
2023-04-23T16:38:26.354Z,96550.19
2023-04-23T16:40:52.861Z,96559.34
2023-04-23T16:43:19.325Z,96560.75
2023-04-23T16:45:45.975Z,96569.09
2023-04-23T16:48:16.408Z,96572.38
2023-04-23T16:50:44.266Z,96611.75
2023-04-23T16:53:10.783Z,96621.88
2023-04-23T16:55:38.168Z,96625.75
2023-04-23T16:58:04.922Z,96632.16
2023-04-23T17:00:31.574Z,96640.28
2023-04-23T17:02:58.214Z,96645.38
2023-04-23T17:05:25.350Z,96655.91
2023-04-23T17:07:52.762Z,96659.38
2023-04-23T17:10:19.465Z,96652.09
2023-04-23T17:12:45.993Z,96654.56
2023-04-23T17:15:12.496Z,96644.13
2023-04-23T17:17:38.988Z,96661.84
2023-04-23T17:20:06.978Z,96653.53
2023-04-23T17:22:33.899Z,96659.00
2023-04-23T17:25:00.543Z,96653.59
2023-04-23T17:27:26.992Z,96670.44
2023-04-23T17:29:53.443Z,96674.28
2023-04-23T17:32:19.924Z,96662.41
2023-04-23T17:34:49.535Z,96647.16
2023-04-23T17:37:21.677Z,96650.72
2023-04-23T17:39:48.225Z,96650.31
2023-04-23T17:42:14.721Z,96644.28
2023-04-23T17:44:41.723Z,96651.41
2023-04-23T17:47:10.201Z,96656.00
2023-04-23T17:49:36.697Z,96660.13
2023-04-23T17:52:03.479Z,96668.09
2023-04-23T17:54:29.913Z,96673.72
2023-04-23T17:56:56.355Z,96678.75
2023-04-23T17:59:22.892Z,96681.22
2023-04-23T18:01:49.332Z,96676.22
2023-04-23T18:04:17.632Z,96677.69
2023-04-23T18:06:44.393Z,96673.94
2023-04-23T18:09:10.942Z,96674.75
2023-04-23T18:11:37.752Z,96670.53
2023-04-23T18:14:04.197Z,96666.41
2023-04-23T18:16:30.733Z,96676.84
2023-04-23T18:18:57.158Z,96679.78
2023-04-23T18:21:23.823Z,96688.56
2023-04-23T18:23:50.384Z,96691.47
2023-04-23T18:26:16.902Z,96688.31
2023-04-23T18:28:43.414Z,96689.75
2023-04-23T18:31:10.101Z,96691.00
2023-04-23T18:33:41.535Z,96693.88
2023-04-23T18:36:17.436Z,96699.56
2023-04-23T18:38:47.227Z,96701.34
2023-04-23T18:41:13.716Z,96702.41
2023-04-23T18:43:40.317Z,96705.94
2023-04-23T18:46:06.908Z,96705.56
2023-04-23T18:48:33.320Z,96710.16
2023-04-23T18:51:08.761Z,96709.66
2023-04-23T18:53:37.172Z,96708.00
2023-04-23T18:56:03.633Z,96707.22
2023-04-23T18:58:30.766Z,96696.78
2023-04-23T19:00:57.474Z,96697.03
2023-04-23T19:03:27.266Z,96701.44
2023-04-23T19:05:54.003Z,96705.44
2023-04-23T19:08:21.166Z,96708.63
2023-04-23T19:10:47.660Z,96699.41
2023-04-23T19:13:14.096Z,96698.97
2023-04-23T19:15:40.930Z,96704.56
2023-04-23T19:18:07.508Z,96698.91
2023-04-23T19:20:34.004Z,96695.81
2023-04-23T19:23:00.468Z,96699.72
2023-04-23T19:25:26.929Z,96698.03
2023-04-23T19:27:53.381Z,96697.63
2023-04-23T19:30:19.870Z,96705.09
2023-04-23T19:32:46.358Z,96693.78
2023-04-23T19:35:13.548Z,96689.97
2023-04-23T19:37:40.082Z,96692.88
2023-04-23T19:40:07.009Z,96694.56
2023-04-23T19:42:33.524Z,96694.72
2023-04-23T19:44:59.955Z,96698.09
2023-04-23T19:47:26.437Z,96688.63
2023-04-23T19:49:52.940Z,96702.09
2023-04-23T19:52:23.998Z,96696.94
2023-04-23T19:54:50.584Z,96700.22
2023-04-23T19:57:22.173Z,96712.22
2023-04-23T19:59:49.174Z,96705.78
2023-04-23T20:02:16.641Z,96709.53
2023-04-23T20:04:43.260Z,96709.22
2023-04-23T20:07:09.953Z,96704.75
2023-04-23T20:09:36.393Z,96701.56
2023-04-23T20:12:03.029Z,96708.56
2023-04-23T20:14:29.953Z,96709.31
2023-04-23T20:16:56.815Z,96705.19
2023-04-23T20:19:25.769Z,96707.38
2023-04-23T20:21:52.576Z,96695.41
2023-04-23T20:24:21.322Z,96700.72
2023-04-23T20:26:48.236Z,96695.03
2023-04-23T20:29:14.786Z,96695.81
2023-04-23T20:31:41.767Z,96696.78
2023-04-23T20:34:08.391Z,96693.81
2023-04-23T20:36:35.761Z,96689.75
2023-04-23T20:39:05.248Z,96690.53
2023-04-23T20:41:32.700Z,96689.28
2023-04-23T20:43:59.334Z,96698.00
2023-04-23T20:46:26.274Z,96695.25
2023-04-23T20:48:55.952Z,96693.00
2023-04-23T20:51:23.248Z,96690.78
2023-04-23T20:53:49.958Z,96691.25
2023-04-23T20:56:16.573Z,96683.09
2023-04-23T20:58:43.069Z,96683.78
2023-04-23T21:01:11.473Z,96677.00
2023-04-23T21:03:39.035Z,96682.13
2023-04-23T21:06:06.740Z,96673.56
2023-04-23T21:08:33.411Z,96672.28
2023-04-23T21:10:59.885Z,96681.56
2023-04-23T21:13:26.470Z,96675.03
2023-04-23T21:15:53.322Z,96671.94
2023-04-23T21:18:19.806Z,96664.47
2023-04-23T21:20:46.285Z,96660.50
2023-04-23T21:23:12.711Z,96659.75
2023-04-23T21:25:39.536Z,96653.25
2023-04-23T21:28:06.500Z,96649.13
2023-04-23T21:30:38.936Z,96638.56
2023-04-23T21:33:05.557Z,96643.72
2023-04-23T21:35:32.169Z,96636.06
2023-04-23T21:37:58.657Z,96630.28
2023-04-23T21:40:25.139Z,96629.53
2023-04-23T21:42:51.675Z,96635.53
2023-04-23T21:45:18.214Z,96630.31
2023-04-23T21:47:44.823Z,96620.50
2023-04-23T21:50:11.640Z,96630.66
2023-04-23T21:52:38.109Z,96627.53
2023-04-23T21:55:05.153Z,96624.00
2023-04-23T21:57:31.676Z,96627.25
2023-04-23T21:59:58.122Z,96614.31
2023-04-23T22:02:24.911Z,96614.88
2023-04-23T22:04:51.424Z,96608.28
2023-04-23T22:07:18.140Z,96619.16
2023-04-23T22:09:44.767Z,96610.69
2023-04-23T22:12:11.832Z,96612.25
2023-04-23T22:14:38.270Z,96610.88
2023-04-23T22:17:05.012Z,96609.75
2023-04-23T22:19:31.545Z,96612.38
2023-04-23T22:21:57.990Z,96608.69
2023-04-23T22:24:24.642Z,96614.41
2023-04-23T22:26:51.108Z,96619.78
2023-04-23T22:29:17.569Z,96595.53
2023-04-23T22:31:44.071Z,96604.94
2023-04-23T22:34:10.565Z,96619.63
2023-04-23T22:36:37.115Z,96609.06
2023-04-23T22:39:05.773Z,96597.28
2023-04-23T22:41:33.740Z,96609.28
2023-04-23T22:44:00.801Z,96603.84
2023-04-23T22:46:28.015Z,96589.41
2023-04-23T22:48:54.700Z,96591.00
2023-04-23T22:51:21.210Z,96598.19
2023-04-23T22:53:47.656Z,96595.56
2023-04-23T22:56:14.149Z,96596.41
2023-04-23T22:58:40.607Z,96591.88
2023-04-23T23:01:07.173Z,96586.38
2023-04-23T23:03:33.770Z,96587.03
2023-04-23T23:06:00.324Z,96575.28
2023-04-23T23:08:26.895Z,96582.19
2023-04-23T23:10:53.361Z,96572.66
2023-04-23T23:13:19.846Z,96565.69
2023-04-23T23:15:46.754Z,96565.38
2023-04-23T23:18:13.451Z,96559.69
2023-04-23T23:20:41.024Z,96558.81
2023-04-23T23:23:07.505Z,96561.97
2023-04-23T23:25:38.167Z,96561.81
2023-04-23T23:28:05.096Z,96546.72
2023-04-23T23:30:31.604Z,96550.75
2023-04-23T23:32:58.161Z,96544.81
2023-04-23T23:35:24.626Z,96545.63
2023-04-23T23:37:51.212Z,96538.97
2023-04-23T23:40:17.704Z,96543.00
2023-04-23T23:42:44.188Z,96546.25
2023-04-23T23:45:10.972Z,96538.13
2023-04-23T23:47:37.491Z,96543.63
2023-04-23T23:50:04.105Z,96531.88
2023-04-23T23:52:30.682Z,96535.13
2023-04-23T23:54:57.301Z,96538.72
2023-04-23T23:57:23.760Z,96532.00
2023-04-23T23:59:50.508Z,96532.16
